createdAt,value
2023-04-18T00:00:23.329Z,1027.50
2023-04-18T00:01:26.253Z,1027.48
2023-04-18T00:02:29.754Z,1027.48
2023-04-18T00:04:06.186Z,1027.52
2023-04-18T00:05:11.226Z,1027.47
2023-04-18T00:06:14.713Z,1027.49
2023-04-18T00:07:49.330Z,1027.48
2023-04-18T00:08:52.345Z,1027.44
2023-04-18T00:09:55.462Z,1027.45
2023-04-18T00:11:30.084Z,1027.48
2023-04-18T00:12:33.199Z,1027.50
2023-04-18T00:13:36.085Z,1027.49
2023-04-18T00:15:10.960Z,1027.46
2023-04-18T00:16:13.860Z,1027.47
2023-04-18T00:17:17.302Z,1027.50
2023-04-18T00:18:52.365Z,1027.50
2023-04-18T00:19:55.484Z,1027.48
2023-04-18T00:20:58.221Z,1027.50
2023-04-18T00:22:32.741Z,1027.52
2023-04-18T00:23:35.431Z,1027.53
2023-04-18T00:24:38.125Z,1027.55
2023-04-18T00:26:12.746Z,1027.56
2023-04-18T00:27:15.648Z,1027.56
2023-04-18T00:28:18.615Z,1027.55
2023-04-18T00:29:53.289Z,1027.55
2023-04-18T00:30:56.625Z,1027.53
2023-04-18T00:31:59.886Z,1027.54
2023-04-18T00:33:34.502Z,1027.55
2023-04-18T00:34:37.418Z,1027.56
2023-04-18T00:35:40.387Z,1027.54
2023-04-18T00:37:14.795Z,1027.47
2023-04-18T00:38:17.687Z,1027.50
2023-04-18T00:39:20.470Z,1027.48
2023-04-18T00:40:55.269Z,1027.48
2023-04-18T00:41:58.203Z,1027.52
2023-04-18T00:43:01.079Z,1027.48
2023-04-18T00:44:35.942Z,1027.47
2023-04-18T00:45:38.815Z,1027.46
2023-04-18T00:46:42.158Z,1027.44
2023-04-18T00:48:17.305Z,1027.44
2023-04-18T00:49:20.315Z,1027.41
2023-04-18T00:50:23.056Z,1027.43
2023-04-18T00:51:57.655Z,1027.44
2023-04-18T00:53:00.461Z,1027.42
2023-04-18T00:54:03.172Z,1027.43
2023-04-18T00:55:38.219Z,1027.44
2023-04-18T00:56:41.013Z,1027.47
2023-04-18T00:57:43.838Z,1027.43
2023-04-18T00:59:18.539Z,1027.43
2023-04-18T01:00:23.894Z,1027.42
2023-04-18T01:01:27.008Z,1027.41
2023-04-18T01:02:30.911Z,1027.38
2023-04-18T01:04:07.221Z,1027.38
2023-04-18T01:05:12.031Z,1027.34
2023-04-18T01:06:15.127Z,1027.33
2023-04-18T01:07:49.720Z,1027.34
2023-04-18T01:08:52.933Z,1027.35
2023-04-18T01:09:55.792Z,1027.36
2023-04-18T01:11:30.235Z,1027.35
2023-04-18T01:12:32.935Z,1027.33
2023-04-18T01:13:35.655Z,1027.37
2023-04-18T01:15:10.291Z,1027.37
2023-04-18T01:16:13.442Z,1027.34
2023-04-18T01:17:16.590Z,1027.32
2023-04-18T01:18:51.380Z,1027.28
2023-04-18T01:19:54.358Z,1027.30
2023-04-18T01:20:57.388Z,1027.29
2023-04-18T01:22:32.148Z,1027.31
2023-04-18T01:23:34.968Z,1027.30
2023-04-18T01:24:37.744Z,1027.30
2023-04-18T01:26:12.242Z,1027.30
2023-04-18T01:27:14.867Z,1027.28
2023-04-18T01:28:17.536Z,1027.28
2023-04-18T01:29:51.947Z,1027.24
2023-04-18T01:30:54.867Z,1027.23
2023-04-18T01:31:57.972Z,1027.20
2023-04-18T01:33:32.667Z,1027.17
2023-04-18T01:34:35.529Z,1027.21
2023-04-18T01:35:38.529Z,1027.15
2023-04-18T01:37:13.180Z,1027.18
2023-04-18T01:38:16.183Z,1027.15
2023-04-18T01:39:19.006Z,1027.15
2023-04-18T01:40:53.843Z,1027.14
2023-04-18T01:41:56.683Z,1027.15
2023-04-18T01:42:59.623Z,1027.16
2023-04-18T01:44:34.187Z,1027.14
2023-04-18T01:45:36.923Z,1027.19
2023-04-18T01:46:39.937Z,1027.16
2023-04-18T01:48:15.077Z,1027.15
2023-04-18T01:49:17.855Z,1027.18
2023-04-18T01:50:20.774Z,1027.19
2023-04-18T01:51:55.585Z,1027.22
2023-04-18T01:52:58.380Z,1027.18
2023-04-18T01:54:01.235Z,1027.19
2023-04-18T01:55:36.475Z,1027.19
2023-04-18T01:56:39.470Z,1027.21
2023-04-18T01:57:42.269Z,1027.23
2023-04-18T01:59:16.791Z,1027.22
2023-04-18T02:00:23.392Z,1027.21
2023-04-18T02:01:26.734Z,1027.22
2023-04-18T02:02:30.397Z,1027.21
2023-04-18T02:04:06.797Z,1027.21
2023-04-18T02:05:10.222Z,1027.21
2023-04-18T02:06:13.158Z,1027.22
2023-04-18T02:07:48.127Z,1027.20
2023-04-18T02:08:51.022Z,1027.22
2023-04-18T02:09:54.052Z,1027.23
2023-04-18T02:11:28.808Z,1027.25
2023-04-18T02:12:31.707Z,1027.21
2023-04-18T02:13:34.663Z,1027.24
2023-04-18T02:15:09.277Z,1027.24
2023-04-18T02:16:12.234Z,1027.19
2023-04-18T02:17:15.421Z,1027.23
2023-04-18T02:18:50.006Z,1027.26
2023-04-18T02:19:52.851Z,1027.18
2023-04-18T02:20:55.616Z,1027.23
2023-04-18T02:22:30.223Z,1027.24
2023-04-18T02:23:33.185Z,1027.24
2023-04-18T02:24:36.204Z,1027.22
2023-04-18T02:26:10.996Z,1027.21
2023-04-18T02:27:13.877Z,1027.22
2023-04-18T02:28:16.689Z,1027.22
2023-04-18T02:29:51.479Z,1027.20
2023-04-18T02:30:54.414Z,1027.21
2023-04-18T02:31:57.435Z,1027.18
2023-04-18T02:33:32.230Z,1027.22
2023-04-18T02:34:34.989Z,1027.20
2023-04-18T02:35:37.892Z,1027.19
2023-04-18T02:37:12.354Z,1027.18
2023-04-18T02:38:15.163Z,1027.18
2023-04-18T02:39:17.958Z,1027.22
2023-04-18T02:40:52.637Z,1027.20
2023-04-18T02:41:55.639Z,1027.26
2023-04-18T02:42:58.541Z,1027.20
2023-04-18T02:44:33.612Z,1027.20
2023-04-18T02:45:36.508Z,1027.24
2023-04-18T02:46:39.760Z,1027.26
2023-04-18T02:48:14.529Z,1027.24
2023-04-18T02:49:17.756Z,1027.26
2023-04-18T02:50:20.684Z,1027.23
2023-04-18T02:51:55.561Z,1027.24
2023-04-18T02:52:58.440Z,1027.21
2023-04-18T02:54:01.555Z,1027.23
2023-04-18T02:55:36.609Z,1027.23
2023-04-18T02:56:39.439Z,1027.20
2023-04-18T02:57:42.291Z,1027.25
2023-04-18T02:59:17.038Z,1027.19
2023-04-18T03:00:23.211Z,1027.23
2023-04-18T03:01:26.240Z,1027.21
2023-04-18T03:02:29.774Z,1027.22
2023-04-18T03:04:05.549Z,1027.20
2023-04-18T03:05:09.063Z,1027.16
2023-04-18T03:06:11.919Z,1027.19
2023-04-18T03:07:46.582Z,1027.17
2023-04-18T03:08:49.358Z,1027.14
2023-04-18T03:09:52.056Z,1027.20
2023-04-18T03:11:26.602Z,1027.16
2023-04-18T03:12:29.583Z,1027.18
2023-04-18T03:13:32.366Z,1027.15
2023-04-18T03:15:07.109Z,1027.16
2023-04-18T03:16:10.386Z,1027.19
2023-04-18T03:17:13.682Z,1027.17
2023-04-18T03:18:48.752Z,1027.21
2023-04-18T03:19:51.753Z,1027.18
2023-04-18T03:20:54.660Z,1027.15
2023-04-18T03:22:29.212Z,1027.13
2023-04-18T03:23:32.055Z,1027.16
2023-04-18T03:24:35.831Z,1027.20
2023-04-18T03:26:10.468Z,1027.15
2023-04-18T03:27:13.274Z,1027.17
2023-04-18T03:28:16.033Z,1027.22
2023-04-18T03:29:50.472Z,1027.18
2023-04-18T03:30:53.456Z,1027.26
2023-04-18T03:31:57.090Z,1027.23
2023-04-18T03:33:31.780Z,1027.18
2023-04-18T03:34:34.688Z,1027.17
2023-04-18T03:35:37.617Z,1027.20
2023-04-18T03:37:12.322Z,1027.19
2023-04-18T03:38:15.264Z,1027.25
2023-04-18T03:39:18.068Z,1027.23
2023-04-18T03:40:52.496Z,1027.24
2023-04-18T03:41:55.378Z,1027.19
2023-04-18T03:42:58.124Z,1027.21
2023-04-18T03:44:32.722Z,1027.19
2023-04-18T03:45:35.504Z,1027.20
2023-04-18T03:46:38.696Z,1027.24
2023-04-18T03:48:13.697Z,1027.25
2023-04-18T03:49:16.710Z,1027.18
2023-04-18T03:50:19.948Z,1027.24
2023-04-18T03:51:54.769Z,1027.23
2023-04-18T03:52:57.592Z,1027.23
2023-04-18T03:54:00.635Z,1027.24
2023-04-18T03:55:35.590Z,1027.25
2023-04-18T03:56:38.434Z,1027.29
2023-04-18T03:57:41.486Z,1027.26
2023-04-18T03:59:16.124Z,1027.23
2023-04-18T04:00:23.577Z,1027.28
2023-04-18T04:01:26.627Z,1027.26
2023-04-18T04:02:30.282Z,1027.27
2023-04-18T04:04:06.637Z,1027.26
2023-04-18T04:05:54.492Z,1027.25
2023-04-18T04:06:57.349Z,1027.26
2023-04-18T04:08:00.236Z,1027.28
2023-04-18T04:09:35.021Z,1027.30
2023-04-18T04:10:37.951Z,1027.27
2023-04-18T04:11:40.837Z,1027.30
2023-04-18T04:13:15.491Z,1027.22
2023-04-18T04:14:18.995Z,1027.26
2023-04-18T04:15:22.155Z,1027.26
2023-04-18T04:16:57.394Z,1027.27
2023-04-18T04:18:00.310Z,1027.30
2023-04-18T04:19:03.373Z,1027.28
2023-04-18T04:20:38.105Z,1027.35
2023-04-18T04:21:40.902Z,1027.36
2023-04-18T04:22:43.686Z,1027.35
2023-04-18T04:24:19.246Z,1027.35
2023-04-18T04:25:22.068Z,1027.32
2023-04-18T04:26:24.851Z,1027.33
2023-04-18T04:27:59.432Z,1027.34
2023-04-18T04:29:02.272Z,1027.32
2023-04-18T04:30:05.081Z,1027.28
2023-04-18T04:31:42.599Z,1027.33
2023-04-18T04:32:45.903Z,1027.33
2023-04-18T04:33:48.948Z,1027.35
2023-04-18T04:35:23.800Z,1027.34
2023-04-18T04:36:30.077Z,1027.34
2023-04-18T04:37:32.987Z,1027.34
2023-04-18T04:39:07.711Z,1027.33
2023-04-18T04:40:10.628Z,1027.36
2023-04-18T04:41:13.431Z,1027.36
2023-04-18T04:42:48.040Z,1027.35
2023-04-18T04:43:51.194Z,1027.41
2023-04-18T04:44:54.507Z,1027.43
2023-04-18T04:46:30.020Z,1027.44
2023-04-18T04:47:32.961Z,1027.44
2023-04-18T04:48:36.008Z,1027.46
2023-04-18T04:50:10.695Z,1027.47
2023-04-18T04:51:13.602Z,1027.52
2023-04-18T04:52:16.428Z,1027.52
2023-04-18T04:53:50.986Z,1027.50
2023-04-18T04:54:53.734Z,1027.50
2023-04-18T04:55:56.597Z,1027.51
2023-04-18T04:57:31.011Z,1027.50
2023-04-18T04:58:33.717Z,1027.54
2023-04-18T04:59:36.435Z,1027.50
2023-04-18T05:01:26.678Z,1027.55
2023-04-18T05:02:30.698Z,1027.50
2023-04-18T05:04:07.448Z,1027.49
2023-04-18T05:05:12.609Z,1027.48
2023-04-18T05:06:15.495Z,1027.53
2023-04-18T05:07:50.395Z,1027.53
2023-04-18T05:08:53.237Z,1027.53
2023-04-18T05:09:55.977Z,1027.53
2023-04-18T05:11:30.352Z,1027.53
2023-04-18T05:12:33.087Z,1027.50
2023-04-18T05:13:35.882Z,1027.51
2023-04-18T05:15:10.369Z,1027.51
2023-04-18T05:16:13.293Z,1027.53
2023-04-18T05:17:16.412Z,1027.51
2023-04-18T05:18:51.365Z,1027.61
2023-04-18T05:19:54.584Z,1027.55
2023-04-18T05:20:57.616Z,1027.54
2023-04-18T05:22:32.271Z,1027.48
2023-04-18T05:23:35.193Z,1027.51
2023-04-18T05:24:38.297Z,1027.51
2023-04-18T05:26:12.989Z,1027.47
2023-04-18T05:27:18.011Z,1027.50
2023-04-18T05:28:21.102Z,1027.47
2023-04-18T05:29:55.741Z,1027.46
2023-04-18T05:30:58.601Z,1027.46
2023-04-18T05:32:01.602Z,1027.48
2023-04-18T05:33:36.169Z,1027.50
2023-04-18T05:34:39.045Z,1027.51
2023-04-18T05:35:41.865Z,1027.50
2023-04-18T05:37:16.511Z,1027.49
2023-04-18T05:38:19.424Z,1027.51
2023-04-18T05:39:22.465Z,1027.47
2023-04-18T05:40:57.193Z,1027.47
2023-04-18T05:42:00.304Z,1027.50
2023-04-18T05:43:03.121Z,1027.50
2023-04-18T05:44:51.670Z,1027.51
2023-04-18T05:45:55.912Z,1027.55
2023-04-18T05:47:00.624Z,1027.57
2023-04-18T05:48:35.077Z,1027.55
2023-04-18T05:49:37.792Z,1027.58
2023-04-18T05:50:40.547Z,1027.58
2023-04-18T05:52:15.240Z,1027.55
2023-04-18T05:53:18.118Z,1027.55
2023-04-18T05:54:21.415Z,1027.59
2023-04-18T05:55:56.238Z,1027.57
2023-04-18T05:56:59.132Z,1027.61
2023-04-18T05:58:02.340Z,1027.55
2023-04-18T05:59:36.963Z,1027.58
2023-04-18T06:01:25.848Z,1027.60
2023-04-18T06:02:29.364Z,1027.64
2023-04-18T06:04:05.679Z,1027.68
2023-04-18T06:05:10.918Z,1027.68
2023-04-18T06:06:15.262Z,1027.68
2023-04-18T06:07:49.943Z,1027.71
2023-04-18T06:08:52.789Z,1027.72
2023-04-18T06:09:55.786Z,1027.62
2023-04-18T06:11:30.467Z,1027.69
2023-04-18T06:12:33.381Z,1027.66
2023-04-18T06:13:36.328Z,1027.71
2023-04-18T06:15:10.921Z,1027.75
2023-04-18T06:16:13.803Z,1027.75
2023-04-18T06:17:16.971Z,1027.81
2023-04-18T06:18:51.638Z,1027.83
2023-04-18T06:19:58.359Z,1027.84
2023-04-18T06:21:01.535Z,1027.84
2023-04-18T06:22:36.195Z,1027.82
2023-04-18T06:23:38.939Z,1027.89
2023-04-18T06:24:42.593Z,1027.86
2023-04-18T06:26:17.704Z,1027.86
2023-04-18T06:27:37.649Z,1027.88
2023-04-18T06:28:40.688Z,1027.86
2023-04-18T06:30:15.399Z,1027.89
2023-04-18T06:31:18.443Z,1027.92
2023-04-18T06:32:21.641Z,1027.88
2023-04-18T06:33:56.566Z,1027.91
2023-04-18T06:34:59.808Z,1027.92
2023-04-18T06:36:02.842Z,1027.85
2023-04-18T06:37:37.204Z,1027.89
2023-04-18T06:38:40.024Z,1027.86
2023-04-18T06:39:42.885Z,1027.88
2023-04-18T06:41:17.471Z,1027.88
2023-04-18T06:42:22.072Z,1027.87
2023-04-18T06:43:25.376Z,1027.89
2023-04-18T06:45:19.860Z,1027.89
2023-04-18T06:46:23.420Z,1027.93
2023-04-18T06:47:26.873Z,1027.95
2023-04-18T06:49:02.905Z,1027.95
2023-04-18T06:50:12.423Z,1027.88
2023-04-18T06:51:15.340Z,1027.93
2023-04-18T06:52:50.115Z,1027.92
2023-04-18T06:53:52.922Z,1027.93
2023-04-18T06:54:55.785Z,1027.94
2023-04-18T06:56:30.451Z,1027.95
2023-04-18T06:57:33.978Z,1027.92
2023-04-18T06:58:36.980Z,1027.91
2023-04-18T07:00:23.151Z,1027.98
2023-04-18T07:01:26.406Z,1027.97
2023-04-18T07:02:29.912Z,1027.96
2023-04-18T07:04:05.881Z,1027.95
2023-04-18T07:05:09.936Z,1027.91
2023-04-18T07:06:12.827Z,1027.97
2023-04-18T07:07:47.404Z,1027.97
2023-04-18T07:08:51.316Z,1027.92
2023-04-18T07:09:55.568Z,1027.98
2023-04-18T07:11:30.189Z,1027.92
2023-04-18T07:12:32.990Z,1027.89
2023-04-18T07:13:35.904Z,1027.92
2023-04-18T07:15:10.491Z,1027.92
2023-04-18T07:16:13.316Z,1027.93
2023-04-18T07:17:17.351Z,1027.90
2023-04-18T07:18:52.361Z,1027.87
2023-04-18T07:19:55.177Z,1027.90
2023-04-18T07:21:00.368Z,1027.92
2023-04-18T07:22:34.993Z,1027.96
2023-04-18T07:23:37.811Z,1027.99
2023-04-18T07:24:40.858Z,1027.99
2023-04-18T07:26:15.563Z,1027.99
2023-04-18T07:27:18.300Z,1028.05
2023-04-18T07:28:21.145Z,1028.04
2023-04-18T07:29:55.681Z,1028.07
2023-04-18T07:30:58.830Z,1028.10
2023-04-18T07:32:01.997Z,1028.18
2023-04-18T07:33:38.050Z,1028.14
2023-04-18T07:34:41.202Z,1028.09
2023-04-18T07:35:44.182Z,1028.07
2023-04-18T07:37:20.780Z,1028.10
2023-04-18T07:38:23.753Z,1028.22
2023-04-18T07:39:26.640Z,1028.19
2023-04-18T07:41:01.436Z,1028.19
2023-04-18T07:42:04.501Z,1028.24
2023-04-18T07:43:07.400Z,1028.21
2023-04-18T07:44:44.379Z,1028.23
2023-04-18T07:45:47.164Z,1028.17
2023-04-18T07:46:50.563Z,1028.23
2023-04-18T07:48:25.421Z,1028.20
2023-04-18T07:49:28.351Z,1028.23
2023-04-18T07:50:31.158Z,1028.20
2023-04-18T07:52:05.791Z,1028.23
2023-04-18T07:53:08.691Z,1028.24
2023-04-18T07:54:11.646Z,1028.20
2023-04-18T07:55:46.332Z,1028.26
2023-04-18T07:56:49.335Z,1028.35
2023-04-18T07:57:53.254Z,1028.27
2023-04-18T07:59:28.299Z,1028.23
2023-04-18T08:00:23.491Z,1028.28
2023-04-18T08:01:26.238Z,1028.33
2023-04-18T08:02:29.749Z,1028.37
2023-04-18T08:04:06.865Z,1028.42
2023-04-18T08:05:13.064Z,1028.39
2023-04-18T08:06:16.226Z,1028.38
2023-04-18T08:07:50.907Z,1028.42
2023-04-18T08:08:53.927Z,1028.41
2023-04-18T08:09:56.950Z,1028.43
2023-04-18T08:11:32.167Z,1028.45
2023-04-18T08:12:35.308Z,1028.42
2023-04-18T08:13:38.782Z,1028.43
2023-04-18T08:15:13.639Z,1028.39
2023-04-18T08:16:17.579Z,1028.38
2023-04-18T08:17:20.869Z,1028.38
2023-04-18T08:18:55.769Z,1028.41
2023-04-18T08:19:59.003Z,1028.38
2023-04-18T08:21:01.855Z,1028.40
2023-04-18T08:22:41.307Z,1028.49
2023-04-18T08:24:05.187Z,1028.50
2023-04-18T08:25:16.520Z,1028.45
2023-04-18T08:26:51.315Z,1028.44
2023-04-18T08:27:54.230Z,1028.49
2023-04-18T08:28:58.037Z,1028.49
2023-04-18T08:30:33.206Z,1028.46
2023-04-18T08:31:36.611Z,1028.45
2023-04-18T08:32:40.030Z,1028.48
2023-04-18T08:34:16.491Z,1028.49
2023-04-18T08:35:19.285Z,1028.47
2023-04-18T08:36:22.109Z,1028.53
2023-04-18T08:37:56.547Z,1028.62
2023-04-18T08:38:59.330Z,1028.59
2023-04-18T08:40:02.396Z,1028.61
2023-04-18T08:41:36.934Z,1028.51
2023-04-18T08:42:39.849Z,1028.54
2023-04-18T08:43:43.036Z,1028.52
2023-04-18T08:45:20.716Z,1028.55
2023-04-18T08:46:24.125Z,1028.53
2023-04-18T08:47:27.182Z,1028.55
2023-04-18T08:49:02.064Z,1028.50
2023-04-18T08:50:06.640Z,1028.51
2023-04-18T08:51:09.343Z,1028.52
2023-04-18T08:52:43.926Z,1028.51
2023-04-18T08:53:46.745Z,1028.47
2023-04-18T08:54:49.851Z,1028.50
2023-04-18T08:56:24.558Z,1028.47
2023-04-18T08:57:27.445Z,1028.42
2023-04-18T08:58:30.185Z,1028.43
2023-04-18T09:00:23.279Z,1028.43
2023-04-18T09:01:26.236Z,1028.42
2023-04-18T09:02:29.621Z,1028.43
2023-04-18T09:04:05.420Z,1028.44
2023-04-18T09:05:08.505Z,1028.43
2023-04-18T09:06:11.565Z,1028.47
2023-04-18T09:07:46.675Z,1028.42
2023-04-18T09:08:49.593Z,1028.37
2023-04-18T09:09:52.373Z,1028.33
2023-04-18T09:11:27.070Z,1028.36
2023-04-18T09:12:29.876Z,1028.43
2023-04-18T09:13:35.699Z,1028.43
2023-04-18T09:15:10.426Z,1028.44
2023-04-18T09:16:13.681Z,1028.40
2023-04-18T09:17:17.345Z,1028.46
2023-04-18T09:18:52.184Z,1028.37
2023-04-18T09:19:59.418Z,1028.40
2023-04-18T09:21:02.766Z,1028.43
2023-04-18T09:22:39.933Z,1028.49
2023-04-18T09:23:42.983Z,1028.56
2023-04-18T09:24:45.875Z,1028.48
2023-04-18T09:26:20.525Z,1028.51
2023-04-18T09:27:23.350Z,1028.54
2023-04-18T09:28:26.153Z,1028.53
2023-04-18T09:30:03.677Z,1028.52
2023-04-18T09:31:06.674Z,1028.51
2023-04-18T09:32:09.921Z,1028.46
2023-04-18T09:33:45.938Z,1028.48
2023-04-18T09:34:48.859Z,1028.48
2023-04-18T09:35:54.493Z,1028.54
2023-04-18T09:37:29.312Z,1028.44
2023-04-18T09:38:32.341Z,1028.47
2023-04-18T09:39:35.184Z,1028.45
2023-04-18T09:41:09.942Z,1028.44
2023-04-18T09:42:13.307Z,1028.38
2023-04-18T09:43:19.958Z,1028.34
2023-04-18T09:44:56.777Z,1028.30
2023-04-18T09:45:59.945Z,1028.22
2023-04-18T09:47:03.009Z,1028.34
2023-04-18T09:48:37.629Z,1028.33
2023-04-18T09:49:40.535Z,1028.36
2023-04-18T09:50:43.344Z,1028.34
2023-04-18T09:52:18.072Z,1028.27
2023-04-18T09:53:21.216Z,1028.33
2023-04-18T09:54:24.856Z,1028.31
2023-04-18T09:56:02.710Z,1028.23
2023-04-18T09:57:05.626Z,1028.29
2023-04-18T09:58:08.570Z,1028.33
2023-04-18T09:59:43.274Z,1028.23
2023-04-18T10:01:25.783Z,1028.23
2023-04-18T10:02:29.123Z,1028.24
2023-04-18T10:04:04.895Z,1028.25
2023-04-18T10:05:08.775Z,1028.22
2023-04-18T10:06:13.288Z,1028.22
2023-04-18T10:07:48.181Z,1028.19
2023-04-18T10:08:51.232Z,1028.23
2023-04-18T10:09:54.166Z,1028.21
2023-04-18T10:11:31.408Z,1028.22
2023-04-18T10:12:34.351Z,1028.25
2023-04-18T10:13:37.498Z,1028.19
2023-04-18T10:15:12.220Z,1028.19
2023-04-18T10:16:15.191Z,1028.23
2023-04-18T10:17:20.983Z,1028.18
2023-04-18T10:19:14.615Z,1028.17
2023-04-18T10:20:17.799Z,1028.14
2023-04-18T10:21:21.416Z,1028.22
2023-04-18T10:22:55.817Z,1028.15
2023-04-18T10:23:58.670Z,1028.17
2023-04-18T10:25:02.031Z,1028.09
2023-04-18T10:26:36.997Z,1028.11
2023-04-18T10:27:39.991Z,1028.09
2023-04-18T10:28:45.970Z,1028.09
2023-04-18T10:30:20.955Z,1028.17
2023-04-18T10:31:24.105Z,1028.16
2023-04-18T10:32:27.069Z,1028.15
2023-04-18T10:34:17.572Z,1028.16
2023-04-18T10:35:20.498Z,1028.20
2023-04-18T10:36:25.880Z,1028.18
2023-04-18T10:38:00.444Z,1028.17
2023-04-18T10:39:03.345Z,1028.19
2023-04-18T10:40:06.591Z,1028.11
2023-04-18T10:41:41.315Z,1028.09
2023-04-18T10:42:46.220Z,1028.16
2023-04-18T10:43:49.239Z,1028.10
2023-04-18T10:45:26.371Z,1028.09
2023-04-18T10:46:43.683Z,1028.04
2023-04-18T10:47:47.743Z,1028.05
2023-04-18T10:49:27.388Z,1028.04
2023-04-18T10:50:31.287Z,1028.01
2023-04-18T10:51:34.081Z,1027.98
2023-04-18T10:53:08.777Z,1027.94
2023-04-18T10:54:11.679Z,1027.97
2023-04-18T10:55:14.682Z,1027.94
2023-04-18T10:56:49.220Z,1027.92
2023-04-18T10:57:52.182Z,1027.91
2023-04-18T10:58:55.029Z,1027.99
2023-04-18T11:00:22.998Z,1027.90
2023-04-18T11:01:27.434Z,1027.92
2023-04-18T11:02:32.453Z,1027.86
2023-04-18T11:04:08.734Z,1027.82
2023-04-18T11:05:13.146Z,1027.89
2023-04-18T11:06:16.704Z,1027.87
2023-04-18T11:07:52.745Z,1027.86
2023-04-18T11:08:55.716Z,1027.85
2023-04-18T11:09:58.543Z,1027.89
2023-04-18T11:11:33.205Z,1027.80
2023-04-18T11:12:36.724Z,1027.81
2023-04-18T11:13:39.566Z,1027.82
2023-04-18T11:15:14.320Z,1027.79
2023-04-18T11:16:17.542Z,1027.74
2023-04-18T11:17:20.853Z,1027.80
2023-04-18T11:18:55.918Z,1027.74
2023-04-18T11:19:58.876Z,1027.75
2023-04-18T11:21:01.833Z,1027.75
2023-04-18T11:22:36.488Z,1027.71
2023-04-18T11:23:39.387Z,1027.68
2023-04-18T11:24:42.262Z,1027.69
2023-04-18T11:26:16.827Z,1027.68
2023-04-18T11:27:21.173Z,1027.72
2023-04-18T11:28:24.240Z,1027.69
2023-04-18T11:29:58.782Z,1027.69
2023-04-18T11:31:01.682Z,1027.66
2023-04-18T11:32:08.964Z,1027.69
2023-04-18T11:33:44.213Z,1027.67
2023-04-18T11:34:47.236Z,1027.68
2023-04-18T11:35:50.288Z,1027.69
2023-04-18T11:37:25.014Z,1027.70
2023-04-18T11:38:30.054Z,1027.60
2023-04-18T11:39:32.952Z,1027.68
2023-04-18T11:41:07.566Z,1027.60
2023-04-18T11:42:10.479Z,1027.65
2023-04-18T11:43:13.341Z,1027.61
2023-04-18T11:44:47.980Z,1027.63
2023-04-18T11:45:50.889Z,1027.59
2023-04-18T11:46:54.173Z,1027.54
2023-04-18T11:48:29.132Z,1027.65
2023-04-18T11:49:32.127Z,1027.70
2023-04-18T11:50:35.038Z,1027.65
2023-04-18T11:52:09.850Z,1027.67
2023-04-18T11:53:12.884Z,1027.57
2023-04-18T11:54:15.913Z,1027.64
2023-04-18T11:55:50.793Z,1027.69
2023-04-18T11:56:53.875Z,1027.70
2023-04-18T11:57:56.611Z,1027.73
2023-04-18T11:59:31.157Z,1027.74
2023-04-18T12:00:22.341Z,1027.60
2023-04-18T12:01:25.448Z,1027.66
2023-04-18T12:02:28.978Z,1027.73
2023-04-18T12:04:05.860Z,1027.72
2023-04-18T12:05:12.162Z,1027.73
2023-04-18T12:06:17.118Z,1027.72
2023-04-18T12:07:52.409Z,1027.68
2023-04-18T12:08:55.313Z,1027.71
2023-04-18T12:09:58.012Z,1027.69
2023-04-18T12:11:32.909Z,1027.70
2023-04-18T12:12:35.777Z,1027.68
2023-04-18T12:13:38.559Z,1027.65
2023-04-18T12:15:13.126Z,1027.59
2023-04-18T12:16:16.067Z,1027.70
2023-04-18T12:17:19.016Z,1027.72
2023-04-18T12:18:53.671Z,1027.71
2023-04-18T12:19:58.156Z,1027.71
2023-04-18T12:21:01.296Z,1027.71
2023-04-18T12:22:36.022Z,1027.69
2023-04-18T12:23:39.131Z,1027.69
2023-04-18T12:24:42.022Z,1027.70
2023-04-18T12:26:16.805Z,1027.71
2023-04-18T12:27:19.769Z,1027.71
2023-04-18T12:28:22.703Z,1027.70
2023-04-18T12:29:57.406Z,1027.76
2023-04-18T12:31:00.346Z,1027.71
2023-04-18T12:32:04.279Z,1027.69
2023-04-18T12:33:38.882Z,1027.72
2023-04-18T12:34:41.799Z,1027.67
2023-04-18T12:35:44.799Z,1027.64
2023-04-18T12:37:19.330Z,1027.72
2023-04-18T12:38:22.278Z,1027.71
2023-04-18T12:39:25.238Z,1027.68
2023-04-18T12:41:00.009Z,1027.71
2023-04-18T12:42:02.994Z,1027.72
2023-04-18T12:43:09.275Z,1027.70
2023-04-18T12:44:45.831Z,1027.67
2023-04-18T12:45:49.900Z,1027.67
2023-04-18T12:46:53.058Z,1027.68
2023-04-18T12:48:28.055Z,1027.64
2023-04-18T12:49:30.787Z,1027.70
2023-04-18T12:50:33.573Z,1027.69
2023-04-18T12:52:08.188Z,1027.68
2023-04-18T12:53:11.102Z,1027.66
2023-04-18T12:54:14.073Z,1027.67
2023-04-18T12:55:49.044Z,1027.61
2023-04-18T12:56:51.941Z,1027.62
2023-04-18T12:57:54.887Z,1027.60
2023-04-18T12:59:29.611Z,1027.57
2023-04-18T13:00:23.308Z,1027.53
2023-04-18T13:01:27.086Z,1027.62
2023-04-18T13:02:30.704Z,1027.60
2023-04-18T13:04:24.090Z,1027.60
2023-04-18T13:05:31.697Z,1027.59
2023-04-18T13:06:36.177Z,1027.54
2023-04-18T13:08:28.496Z,1027.49
2023-04-18T13:09:31.265Z,1027.49
2023-04-18T13:10:34.100Z,1027.57
2023-04-18T13:12:08.882Z,1027.46
2023-04-18T13:13:11.815Z,1027.50
2023-04-18T13:14:15.024Z,1027.43
2023-04-18T13:15:49.989Z,1027.47
2023-04-18T13:16:55.564Z,1027.45
2023-04-18T13:17:59.295Z,1027.45
2023-04-18T13:19:34.307Z,1027.46
2023-04-18T13:20:37.291Z,1027.43
2023-04-18T13:21:40.241Z,1027.46
2023-04-18T13:23:17.418Z,1027.46
2023-04-18T13:24:20.277Z,1027.50
2023-04-18T13:25:23.040Z,1027.46
2023-04-18T13:26:57.579Z,1027.50
2023-04-18T13:28:00.314Z,1027.47
2023-04-18T13:29:03.265Z,1027.46
2023-04-18T13:30:38.311Z,1027.43
2023-04-18T13:31:41.431Z,1027.44
2023-04-18T13:32:44.963Z,1027.46
2023-04-18T13:34:19.935Z,1027.46
2023-04-18T13:35:23.247Z,1027.41
2023-04-18T13:36:27.144Z,1027.43
2023-04-18T13:38:03.670Z,1027.41
2023-04-18T13:39:06.497Z,1027.47
2023-04-18T13:40:09.403Z,1027.42
2023-04-18T13:41:44.057Z,1027.41
2023-04-18T13:42:47.006Z,1027.36
2023-04-18T13:43:49.851Z,1027.40
2023-04-18T13:45:24.371Z,1027.42
2023-04-18T13:46:27.629Z,1027.31
2023-04-18T13:47:31.121Z,1027.38
2023-04-18T13:49:06.042Z,1027.36
2023-04-18T13:50:09.422Z,1027.37
2023-04-18T13:51:12.416Z,1027.36
2023-04-18T13:52:47.070Z,1027.35
2023-04-18T13:53:49.935Z,1027.31
2023-04-18T13:54:52.872Z,1027.31
2023-04-18T13:56:27.559Z,1027.33
2023-04-18T13:57:30.420Z,1027.37
2023-04-18T13:58:33.273Z,1027.26
2023-04-18T14:00:22.564Z,1027.31
2023-04-18T14:01:25.509Z,1027.30
2023-04-18T14:02:29.291Z,1027.32
2023-04-18T14:04:06.049Z,1027.31
2023-04-18T14:05:10.976Z,1027.35
2023-04-18T14:06:14.061Z,1027.30
2023-04-18T14:07:48.924Z,1027.30
2023-04-18T14:08:51.914Z,1027.29
2023-04-18T14:09:56.790Z,1027.32
2023-04-18T14:11:31.522Z,1027.29
2023-04-18T14:12:34.384Z,1027.33
2023-04-18T14:13:37.334Z,1027.26
2023-04-18T14:15:11.955Z,1027.28
2023-04-18T14:16:15.096Z,1027.28
2023-04-18T14:17:18.660Z,1027.21
2023-04-18T14:18:53.681Z,1027.18
2023-04-18T14:19:56.550Z,1027.19
2023-04-18T14:20:59.582Z,1027.22
2023-04-18T14:22:34.181Z,1027.14
2023-04-18T14:23:39.341Z,1027.20
2023-04-18T14:24:42.282Z,1027.12
2023-04-18T14:26:17.037Z,1027.11
2023-04-18T14:27:19.907Z,1027.09
2023-04-18T14:28:22.879Z,1027.06
2023-04-18T14:29:57.444Z,1027.06
2023-04-18T14:31:00.667Z,1027.07
2023-04-18T14:32:03.803Z,1027.06
2023-04-18T14:33:38.430Z,1027.08
2023-04-18T14:34:44.594Z,1027.05
2023-04-18T14:35:47.311Z,1026.98
2023-04-18T14:37:23.456Z,1026.94
2023-04-18T14:38:26.267Z,1026.92
2023-04-18T14:39:29.356Z,1026.95
2023-04-18T14:41:04.477Z,1026.93
2023-04-18T14:42:07.458Z,1026.91
2023-04-18T14:43:10.377Z,1026.94
2023-04-18T14:44:45.138Z,1026.95
2023-04-18T14:45:48.085Z,1026.94
2023-04-18T14:46:51.681Z,1026.93
2023-04-18T14:48:26.915Z,1026.91
2023-04-18T14:49:29.728Z,1026.93
2023-04-18T14:50:32.617Z,1026.93
2023-04-18T14:52:07.284Z,1026.94
2023-04-18T14:53:10.122Z,1026.95
2023-04-18T14:54:13.028Z,1026.93
2023-04-18T14:55:50.472Z,1026.94
2023-04-18T14:56:53.523Z,1026.89